« 定点 富山空港 2019/12/13 fri | トップページ | 令和元年度築城基地航空祭【展示編】 築城飛行場 2019/12/8 sun »

2019/12/18

令和元年度築城基地航空祭【飛行編】 築城飛行場 2019/12/8 sun

第6飛行隊創隊60周年に、F-2二個飛行隊に変わってからまだ訪問していないので、今年は築城へ出撃。それも、那覇との二連荘で行動してます。

METAR RJFZ 072300Z 25004KT 9999 FEW025 BKN045 07/02 Q1026 RMK 1CU025
7SC045 A3030

20191208_rjfz_200f2

築城早朝の開門待ちに飽き飽きしてたので、今年は押っ取り刀で向かったら・・・

20191208_rjfz_201f2

入場列に並んでいるうちにオープニングフライトが離陸スタート

20191208_rjfz_202tsuiki

ここで8時。もい一本早いのに乗ればよかったか・・・

20191208_rjfz_203f728883

ex72-8883 まずは、ご慰霊してから

20191208_rjfz_204f2

3機X3機で飛び立って、編隊集合して帰ってきました。

20191208_rjfz_205f2

リーダーは、6スコの記念塗装機

20191208_rjfz_206f2

赤いフェニックス

20191208_rjfz_207f2

ファンブレイク イイネ でも、暗い曇天が残念

20191208_rjfz_208f2

6飛を眺めていたら・・

20191208_rjfz_209f2

続いて8飛も航過

20191208_rjfz_210f2

次は八

20191208_rjfz_211f2

会場正面でウイングがブイレク

20191208_rjfz_212f2

20191208_rjfz_213f038558

03-8558 F-2A 6SQ KODACHI02

20191208_rjfz_214f638540

63-8540 F-2A 8SQ JONY17

20191208_rjfz_215f2

20191208_rjfz_216f138514

13-8514 F-2A 8SQ JONY16

20191208_rjfz_217f338523

各飛行隊のリーダーが2機で再進入して

20191208_rjfz_218f338523

ブレイク

20191208_rjfz_219f338523

33-8523 F-2A 6SQ KODACHI01

20191208_rjfz_220f638540

#540 8スコの黒豹機が展示エプロンへ

20191208_rjfz_221f2

もう一匹黒豹

20191208_rjfz_222f338523

フェニックスも到着

20191208_rjfz_223f338523

33-8523 F-2A 6SQ KODACHI01

20191208_rjfz_224f938549

93-8549 F-2A 8SQ JONY15

20191208_rjfz_225f8sq

8スコさんの模擬対地射爆撃解説

20191208_rjfz_226f8sq

Pさん等もカワイイイラストでご紹介

20191208_rjfz_227af8sq

8スコ隊舎には、巨大テルテル坊主

20191208_rjfz_227bf8sq

窓から眺める黒豹達

20191208_rjfz_227f6sq

20191208_rjfz_228f6sq

20191208_rjfz_229f6sq

6スコさんには、にしにしさん

20191208_rjfz_230f6sq

仕事速い、にしにしさん

METAR RJFZ 080000Z 25004KT 9999 FEW030 BKN045 08/03 Q1026 RMK 1CU030
7SC045 A3031

20191208_rjfz_231t665942

海向こうの防府北基地から第12飛行教育団のT-7さん

20191208_rjfz_232t7

きっちりとした編隊飛行

20191208_rjfz_233t7

20191208_rjfz_234t7

66-5942 / 76-5944 / 76-5945 / 86-5948 T-7 11TFW SETO-K

20191208_rjfz_235fja14wp

内海さんの競技曲技飛行

20191208_rjfz_236fja14wp

20191208_rjfz_237fja14wp

20191208_rjfz_238fja14wp

JA14WP EA-300L

METAR RJFZ 080100Z 24003KT 9999 FEW030 BKN045 10/03 Q1026 RMK 1CU030
7SC045 A303

20191208_rjfz_239f528861

ココで見る梅組みさんに慣れない

20191208_rjfz_240f528861

低い上がりから・・・

20191208_rjfz_241f528861

ドッカーン

20191208_rjfz_242f528861

20191208_rjfz_243f528861

52-8861 F-15J 305SQ ENJOY21

20191208_rjfz_244f528861

20191208_rjfz_245f138520

8スコさんの待機場所は東側

20191208_rjfz_246f038555

模擬空対地射爆撃に向けてタクシー開始

20191208_rjfz_247f638540

63-8540 F-2A 8SQ ELITE17

20191208_rjfz_248f138514

13-8514 F-2A 8SQ ELITE18

20191208_rjfz_249f138514

展示エプロンからデモスクランブルで移動

METAR RJFZ 080200Z VRB01KT 9999 FEW030 BKN045 11/M00 Q1026 RMK
1CU030 7SC045 A3032

20191208_rjfz_250f938549

93-8549 F-2A 8SQ LAMIA19

20191208_rjfz_251f938549

低く上がって、いきなり急旋廻

20191208_rjfz_252f138520

13-8520 F-2A 8SQ  LAMIA20 こちらは急上昇

20191208_rjfz_253f138558

続いて編隊離陸の・・

20191208_rjfz_254f2

パッカーン

20191208_rjfz_255f2

4機エシュロンで進入して・・

20191208_rjfz_256f2

パンパンパンパン

20191208_rjfz_257f2

急降下爆撃

20191208_rjfz_258f2

末広がりアタック

20191208_rjfz_259f2

後ろに逃げるも近い

20191208_rjfz_260f2

機関砲射撃へ

20191208_rjfz_261f2

あっち行く

20191208_rjfz_262f2

超低空侵入からのこっち来た!

20191208_rjfz_263f2

機関砲撃ってから、こっち来た

20191208_rjfz_264f2

ほってんを囮にした

20191208_rjfz_265f2

かいとのヤバイ奇襲

20191208_rjfz_266f2

最後は、一発かまして

20191208_rjfz_267f2

パッ!ビァーン!って

20191208_rjfz_268f138520

着陸 #520

20191208_rjfz_269f638539

03-8555 F-2A 8SQ LAMIA21

20191208_rjfz_270f638538

13-8558 F-2A 8SQ LAMIA21

20191208_rjfz_271f938549

#549

20191208_rjfz_272f138520

#520

20191208_rjfz_273f038555

#555

20191208_rjfz_274f138558

#558

20191208_rjfz_275f2

久しぶりにワクワクするAGG ありがとうございました。

20191208_rjfz_256ajg

地上での花火士さんは、陸自第40普通科連隊(小倉)

20191208_rjfz_276f338523

フェニックスさんは、増槽を外して

20191208_rjfz_277f338523

ドナドナされていきました。

20191208_rjfz_278f338523

見友必撮

20191208_rjfz_279f338523

6スコさんの待機は西側

ここからブルーインパルス

令和元年度築城基地航空祭【B.I.編】 築城飛行場 2019/12/8 sun

METAR RJFZ 080500Z 09003KT 050V130 9999 FEW030 SCT050 13/M00 Q1024
RMK 1CU030 3SC050 A3027

20191208_rjfz_280f2538532

ドルフィンライダーさんが引き上げてくる背後を

20191208_rjfz_281f2538532

ドッカーン

20191208_rjfz_282f2538532

びゅーん!

20191208_rjfz_283f2538532

6スコさんの機動飛行

20191208_rjfz_284f2538532

53-8532 F-2A 6SQ KODACHI02

20191208_rjfz_285f338523

33-8523 F-2A 6SQ KODACHI01

20191208_rjfz_286f2538532

20191208_rjfz_287f2538532

今回は、本日中に帰投する予定なので、機動を見ながら退場しようとしたのですが・・

METAR RJFZ 080600Z 12005KT 9999 FEW030 SCT050 12/M00 Q1024 RMK
1CU030 3SC050 A3026

退場渋滞にハマッテ・・

20191208_rjfz_288c851086

85-1086 C-130H 401SQ C86

20191208_rjfz_289m9906

9906 US-2 ARS71 I06

20191208_rjfz_290c681204

68-1204 KC-2 403SQ C04

帰投機を退場中の門前で眺めながら、1時間半もかけて築城駅に到着という失態。でも、なんとかシンデレラにならずに帰着できた。

 

|

« 定点 富山空港 2019/12/13 fri | トップページ | 令和元年度築城基地航空祭【展示編】 築城飛行場 2019/12/8 sun »

築城飛行場」カテゴリの記事

コメント

コメントを書く



(ウェブ上には掲載しません)


コメントは記事投稿者が公開するまで表示されません。



« 定点 富山空港 2019/12/13 fri | トップページ | 令和元年度築城基地航空祭【展示編】 築城飛行場 2019/12/8 sun »